createdAt,value
2022-08-08T00:00:54.390Z,91.20
2022-08-08T00:03:47.580Z,91.20
2022-08-08T00:06:41.759Z,91.10
2022-08-08T00:09:44.465Z,91.10
2022-08-08T00:12:23.715Z,91.50
2022-08-08T00:15:55.833Z,91.40
2022-08-08T00:18:17.937Z,91.40
2022-08-08T00:20:54.274Z,91.90
2022-08-08T00:23:51.205Z,91.80
2022-08-08T00:26:43.471Z,91.80
2022-08-08T00:29:45.471Z,92.20
2022-08-08T00:32:34.686Z,92.20
2022-08-08T00:35:59.915Z,92.40
2022-08-08T00:41:07.361Z,92.50
2022-08-08T00:42:42.156Z,92.50
2022-08-08T00:45:53.498Z,92.50
2022-08-08T00:49:22.099Z,92.50
2022-08-08T00:52:48.475Z,92.50
2022-08-08T00:56:19.230Z,92.80
2022-08-08T00:59:10.426Z,92.80
2022-08-08T01:03:16.042Z,92.50
2022-08-08T01:05:58.459Z,92.70
2022-08-08T01:09:36.032Z,92.60
2022-08-08T01:12:27.695Z,93.10
2022-08-08T01:15:44.108Z,93.10
2022-08-08T01:19:11.724Z,93.30
2022-08-08T01:22:35.187Z,93.10
2022-08-08T01:25:40.386Z,93.10
2022-08-08T01:28:28.025Z,93.30
2022-08-08T01:32:13.464Z,93.40
2022-08-08T01:34:54.623Z,93.10
2022-08-08T01:37:58.035Z,92.90
2022-08-08T01:40:40.650Z,92.90
2022-08-08T01:43:39.067Z,92.60
2022-08-08T01:46:11.996Z,92.20
2022-08-08T01:49:10.971Z,91.90
2022-08-08T01:52:41.221Z,91.80
2022-08-08T01:56:26.937Z,92.00
2022-08-08T01:58:38.646Z,92.50
2022-08-08T02:01:28.174Z,92.20
2022-08-08T02:04:28.933Z,92.20
2022-08-08T02:07:13.783Z,92.40
2022-08-08T02:10:44.996Z,92.60
2022-08-08T02:13:53.286Z,92.40
2022-08-08T02:16:29.115Z,92.40
2022-08-08T02:19:41.867Z,92.90
2022-08-08T02:22:32.543Z,92.70
2022-08-08T02:25:19.374Z,93.10
2022-08-08T02:28:10.843Z,93.10
2022-08-08T02:31:43.362Z,93.10
2022-08-08T02:34:33.212Z,92.50
2022-08-08T02:37:52.576Z,92.50
2022-08-08T02:40:56.938Z,92.70
2022-08-08T02:44:42.464Z,92.80
2022-08-08T02:47:23.986Z,93.20
2022-08-08T02:50:55.570Z,92.90
2022-08-08T02:54:06.760Z,93.00
2022-08-08T02:56:42.762Z,92.90
2022-08-08T02:59:57.745Z,93.10
2022-08-08T03:03:03.048Z,93.00
2022-08-08T03:05:45.397Z,93.00
2022-08-08T03:08:56.966Z,93.00
2022-08-08T03:12:14.378Z,93.00
2022-08-08T03:15:57.762Z,93.60
2022-08-08T03:18:32.084Z,93.50
2022-08-08T03:20:58.916Z,93.60
2022-08-08T03:23:56.149Z,93.40
2022-08-08T03:26:31.012Z,93.60
2022-08-08T03:29:04.569Z,93.80
2022-08-08T03:32:08.624Z,93.80
2022-08-08T03:34:37.701Z,93.80
2022-08-08T03:37:58.961Z,93.80
2022-08-08T03:40:02.278Z,93.90
2022-08-08T03:42:32.131Z,93.90
2022-08-08T03:44:59.605Z,94.00
2022-08-08T03:47:45.224Z,94.00
2022-08-08T03:50:24.594Z,94.00
2022-08-08T03:52:54.624Z,94.20
2022-08-08T03:55:57.485Z,94.20
2022-08-08T03:58:35.255Z,94.10
2022-08-08T04:01:02.107Z,94.10
2022-08-08T04:03:58.958Z,94.30
2022-08-08T04:06:29.814Z,94.30
2022-08-08T04:09:10.363Z,94.50
2022-08-08T04:11:58.141Z,94.50
2022-08-08T04:14:34.311Z,94.40
2022-08-08T04:17:06.916Z,94.40
2022-08-08T04:19:43.819Z,94.40
2022-08-08T04:22:10.857Z,94.50
2022-08-08T04:24:41.939Z,94.60
2022-08-08T04:27:19.742Z,94.80
2022-08-08T04:30:17.276Z,95.10
2022-08-08T04:32:44.877Z,95.00
2022-08-08T04:35:15.257Z,95.10
2022-08-08T04:37:42.184Z,95.40
2022-08-08T04:40:12.409Z,95.40
2022-08-08T04:42:55.993Z,95.30
2022-08-08T04:45:25.527Z,95.60
2022-08-08T04:47:53.883Z,95.50
2022-08-08T04:50:25.418Z,95.50
2022-08-08T04:53:00.477Z,95.40
2022-08-08T04:55:37.616Z,95.70
2022-08-08T04:58:17.544Z,95.60
2022-08-08T05:00:47.621Z,95.70
2022-08-08T05:03:18.862Z,95.40
2022-08-08T05:06:13.620Z,95.10
2022-08-08T05:08:51.844Z,94.90
2022-08-08T05:11:24.265Z,95.20
2022-08-08T05:13:57.935Z,95.30
2022-08-08T05:16:54.854Z,95.90
2022-08-08T05:20:04.263Z,95.60
2022-08-08T05:22:08.880Z,95.40
2022-08-08T05:24:38.470Z,95.50
2022-08-08T05:27:06.607Z,95.30
2022-08-08T05:29:36.086Z,95.30
2022-08-08T05:32:07.376Z,95.40
2022-08-08T05:34:50.785Z,95.30
2022-08-08T05:37:49.019Z,95.50
2022-08-08T05:40:17.621Z,94.80
2022-08-08T05:42:54.216Z,94.60
2022-08-08T05:45:25.395Z,95.40
2022-08-08T05:48:08.925Z,95.30
2022-08-08T05:50:38.496Z,95.20
2022-08-08T05:53:54.666Z,95.30
2022-08-08T05:56:07.752Z,95.30
2022-08-08T05:58:58.044Z,95.00
2022-08-08T06:01:55.590Z,94.70
2022-08-08T06:04:26.157Z,94.90
2022-08-08T06:07:00.082Z,95.10
2022-08-08T06:09:59.881Z,95.10
2022-08-08T06:12:29.730Z,94.80
2022-08-08T06:15:01.165Z,95.30
2022-08-08T06:18:18.719Z,94.70
2022-08-08T06:20:25.983Z,94.60
2022-08-08T06:22:53.903Z,94.80
2022-08-08T06:26:34.754Z,95.10
2022-08-08T06:28:18.327Z,95.00
2022-08-08T06:30:50.718Z,95.40
2022-08-08T06:33:36.979Z,95.00
2022-08-08T06:36:10.666Z,94.70
2022-08-08T06:38:41.043Z,95.30
2022-08-08T06:41:13.070Z,94.10
2022-08-08T06:43:57.438Z,94.70
2022-08-08T06:46:24.928Z,95.30
2022-08-08T06:48:57.619Z,94.50
2022-08-08T06:51:31.233Z,94.50
2022-08-08T06:54:13.375Z,94.20
2022-08-08T06:56:41.939Z,94.80
2022-08-08T06:59:14.227Z,94.10
2022-08-08T07:02:17.618Z,94.40
2022-08-08T07:05:11.993Z,95.10
2022-08-08T07:07:55.248Z,94.60
2022-08-08T07:10:24.880Z,93.60
2022-08-08T07:13:06.192Z,93.40
2022-08-08T07:16:06.315Z,94.00
2022-08-08T07:18:49.959Z,93.80
2022-08-08T07:21:22.337Z,93.00
2022-08-08T07:24:02.801Z,93.40
2022-08-08T07:26:35.276Z,93.50
2022-08-08T07:29:08.187Z,94.10
2022-08-08T07:31:40.579Z,92.40
2022-08-08T07:34:10.326Z,92.90
2022-08-08T07:36:50.454Z,93.10
2022-08-08T07:39:29.763Z,93.50
2022-08-08T07:42:18.999Z,92.80
2022-08-08T07:44:48.274Z,92.70
2022-08-08T07:47:18.314Z,93.60
2022-08-08T07:49:57.532Z,92.20
2022-08-08T07:52:27.223Z,91.60
2022-08-08T07:55:28.556Z,92.90
2022-08-08T07:58:18.080Z,92.10
2022-08-08T08:01:15.979Z,92.30
2022-08-08T08:04:03.871Z,93.60
2022-08-08T08:06:38.573Z,92.40
2022-08-08T08:09:41.802Z,92.10
2022-08-08T08:12:31.390Z,92.10
2022-08-08T08:15:07.095Z,92.50
2022-08-08T08:17:47.467Z,91.50
2022-08-08T08:20:18.586Z,93.00
2022-08-08T08:22:47.444Z,92.50
2022-08-08T08:25:17.029Z,92.50
2022-08-08T08:28:03.074Z,92.60
2022-08-08T08:30:30.655Z,93.50
2022-08-08T08:32:59.318Z,92.20
2022-08-08T08:35:29.887Z,92.10
2022-08-08T08:38:17.535Z,92.00
2022-08-08T08:40:51.175Z,91.50
2022-08-08T08:43:20.231Z,93.20
2022-08-08T08:45:58.131Z,91.80
2022-08-08T08:48:31.715Z,91.40
2022-08-08T08:51:03.281Z,91.30
2022-08-08T08:53:56.561Z,92.20
2022-08-08T08:56:25.585Z,93.20
2022-08-08T08:58:57.193Z,91.10
2022-08-08T09:01:32.305Z,91.30
2022-08-08T09:04:31.642Z,92.10
2022-08-08T09:06:59.602Z,92.00
2022-08-08T09:09:40.300Z,91.30
2022-08-08T09:12:19.934Z,91.70
2022-08-08T09:14:50.144Z,91.70
2022-08-08T09:17:19.658Z,91.50
2022-08-08T09:21:58.546Z,92.60
2022-08-08T09:22:47.705Z,91.30
2022-08-08T09:25:15.685Z,92.00
2022-08-08T09:27:57.427Z,91.20
2022-08-08T09:30:29.697Z,91.00
2022-08-08T09:33:54.047Z,90.90
2022-08-08T09:35:49.899Z,91.20
2022-08-08T09:38:56.264Z,91.50
2022-08-08T09:42:14.486Z,91.20
2022-08-08T09:45:03.848Z,90.60
2022-08-08T09:48:09.607Z,90.10
2022-08-08T09:50:32.549Z,91.80
2022-08-08T09:53:15.296Z,90.10
2022-08-08T09:56:05.128Z,90.50
2022-08-08T09:58:41.805Z,90.70
2022-08-08T10:01:59.547Z,91.60
2022-08-08T10:04:15.208Z,90.80
2022-08-08T10:07:07.538Z,90.50
2022-08-08T10:09:35.839Z,88.80
2022-08-08T10:12:38.215Z,90.30
2022-08-08T10:15:20.032Z,89.60
2022-08-08T10:18:05.494Z,89.60
2022-08-08T10:20:51.268Z,89.90
2022-08-08T10:23:45.017Z,88.70
2022-08-08T10:26:52.106Z,89.50
2022-08-08T10:29:58.461Z,87.80
2022-08-08T10:32:40.308Z,86.90
2022-08-08T10:36:06.289Z,85.50
2022-08-08T10:38:08.538Z,86.90
2022-08-08T10:40:38.807Z,85.30
2022-08-08T10:43:07.191Z,86.20
2022-08-08T10:45:56.644Z,85.60
2022-08-08T10:48:56.671Z,86.90
2022-08-08T10:51:31.530Z,83.70
2022-08-08T10:54:08.345Z,85.00
2022-08-08T10:56:43.290Z,83.60
2022-08-08T10:59:14.081Z,85.60
2022-08-08T11:01:49.404Z,85.30
2022-08-08T11:04:29.656Z,86.40
2022-08-08T11:07:07.089Z,83.10
2022-08-08T11:09:34.867Z,77.60
2022-08-08T11:12:13.352Z,75.60
2022-08-08T11:14:57.079Z,80.90
2022-08-08T11:17:58.511Z,85.10
2022-08-08T11:20:27.573Z,82.10
2022-08-08T11:23:05.747Z,83.80
2022-08-08T11:25:53.184Z,80.80
2022-08-08T11:28:29.081Z,79.20
2022-08-08T11:31:00.174Z,79.60
2022-08-08T11:33:53.135Z,80.50
2022-08-08T11:36:16.255Z,80.60
2022-08-08T11:38:55.638Z,81.40
2022-08-08T11:41:28.052Z,82.00
2022-08-08T11:44:00.827Z,73.30
2022-08-08T11:46:30.488Z,73.80
2022-08-08T11:49:01.545Z,74.00
2022-08-08T11:51:38.918Z,77.20
2022-08-08T11:54:27.443Z,75.00
2022-08-08T11:56:57.744Z,73.10
2022-08-08T12:00:01.791Z,72.60
2022-08-08T12:02:32.834Z,75.40
2022-08-08T12:05:13.451Z,72.90
2022-08-08T12:07:56.025Z,73.80
2022-08-08T12:10:33.617Z,70.80
2022-08-08T12:13:05.799Z,72.50
2022-08-08T12:15:49.393Z,72.10
2022-08-08T12:18:21.603Z,73.00
2022-08-08T12:20:54.287Z,73.10
2022-08-08T12:23:59.281Z,71.40
2022-08-08T12:26:50.253Z,72.30
2022-08-08T12:29:25.895Z,73.30
2022-08-08T12:32:19.870Z,73.40
2022-08-08T12:35:04.673Z,73.30
2022-08-08T12:38:01.678Z,73.20
2022-08-08T12:40:56.023Z,74.50
2022-08-08T12:43:46.558Z,74.20
2022-08-08T12:46:26.774Z,71.10
2022-08-08T12:49:25.148Z,70.70
2022-08-08T12:51:59.060Z,72.40
2022-08-08T12:54:41.026Z,72.20
2022-08-08T12:57:23.403Z,73.70
2022-08-08T13:00:05.744Z,72.30
2022-08-08T13:02:53.346Z,71.40
2022-08-08T13:05:26.203Z,69.80
2022-08-08T13:08:21.211Z,73.00
2022-08-08T13:10:57.251Z,73.50
2022-08-08T13:13:34.676Z,72.30
2022-08-08T13:16:25.998Z,70.70
2022-08-08T13:19:05.564Z,70.90
2022-08-08T13:21:53.731Z,72.20
2022-08-08T13:24:42.157Z,69.70
2022-08-08T13:27:17.448Z,71.00
2022-08-08T13:29:56.335Z,71.70
2022-08-08T13:32:28.679Z,71.10
2022-08-08T13:34:59.343Z,71.30
2022-08-08T13:38:05.401Z,68.80
2022-08-08T13:40:17.619Z,73.70
2022-08-08T13:42:53.706Z,72.20
2022-08-08T13:45:24.376Z,71.10
2022-08-08T13:48:02.928Z,70.90
2022-08-08T13:50:43.994Z,71.40
2022-08-08T13:53:34.077Z,70.40
2022-08-08T13:56:11.689Z,70.40
2022-08-08T13:58:57.656Z,68.80
2022-08-08T14:01:52.963Z,70.60
2022-08-08T14:04:27.590Z,70.90
2022-08-08T14:07:04.480Z,73.00
2022-08-08T14:10:04.578Z,70.60
2022-08-08T14:12:33.770Z,69.80
2022-08-08T14:15:02.977Z,69.70
2022-08-08T14:17:58.145Z,69.40
2022-08-08T14:20:56.578Z,69.40
2022-08-08T14:24:07.113Z,69.90
2022-08-08T14:26:11.098Z,68.20
2022-08-08T14:28:39.661Z,69.20
2022-08-08T14:31:11.410Z,69.30
2022-08-08T14:33:56.680Z,70.00
2022-08-08T14:36:38.796Z,69.20
2022-08-08T14:39:11.674Z,67.90
2022-08-08T14:41:54.368Z,69.20
2022-08-08T14:44:35.036Z,69.10
2022-08-08T14:47:02.640Z,68.70
2022-08-08T14:50:06.461Z,69.20
2022-08-08T14:52:48.258Z,69.50
2022-08-08T14:55:16.395Z,68.50
2022-08-08T14:58:03.269Z,69.70
2022-08-08T15:00:34.858Z,68.60
2022-08-08T15:03:14.767Z,69.10
2022-08-08T15:05:52.382Z,69.50
2022-08-08T15:08:34.607Z,68.00
2022-08-08T15:11:11.399Z,70.10
2022-08-08T15:14:00.931Z,68.90
2022-08-08T15:16:34.309Z,68.50
2022-08-08T15:19:03.010Z,68.80
2022-08-08T15:21:30.639Z,69.30
2022-08-08T15:23:58.279Z,71.00
2022-08-08T15:26:25.430Z,70.00
2022-08-08T15:28:54.347Z,69.80
2022-08-08T15:31:48.932Z,69.00
2022-08-08T15:34:29.280Z,68.90
2022-08-08T15:37:05.008Z,69.30
2022-08-08T15:39:39.450Z,68.80
2022-08-08T15:42:13.368Z,70.90
2022-08-08T15:44:55.522Z,69.60
2022-08-08T15:47:23.875Z,71.50
2022-08-08T15:49:53.153Z,71.30
2022-08-08T15:52:23.078Z,70.10
2022-08-08T15:54:53.008Z,72.00
2022-08-08T15:57:21.676Z,69.80
2022-08-08T16:00:14.167Z,71.00
2022-08-08T16:02:37.232Z,70.30
2022-08-08T16:05:13.901Z,69.50
2022-08-08T16:07:52.368Z,70.80
2022-08-08T16:13:20.818Z,73.10
2022-08-08T16:13:30.282Z,69.40
2022-08-08T16:16:03.344Z,70.20
2022-08-08T16:18:39.892Z,67.50
2022-08-08T16:21:20.667Z,72.50
2022-08-08T16:23:55.652Z,68.80
2022-08-08T16:26:34.255Z,70.30
2022-08-08T16:29:37.080Z,68.40
2022-08-08T16:32:08.246Z,68.70
2022-08-08T16:34:38.229Z,69.00
2022-08-08T16:37:06.278Z,69.40
2022-08-08T16:40:00.391Z,68.30
2022-08-08T16:42:20.751Z,68.00
2022-08-08T16:44:54.547Z,69.50
2022-08-08T16:47:40.070Z,68.30
2022-08-08T16:50:16.699Z,68.70
2022-08-08T16:55:05.138Z,68.60
2022-08-08T16:55:55.100Z,68.10
2022-08-08T16:58:29.379Z,68.00
2022-08-08T17:01:05.926Z,68.20
2022-08-08T17:03:58.567Z,67.20
2022-08-08T17:06:36.797Z,67.50
2022-08-08T17:09:07.602Z,66.80
2022-08-08T17:11:48.753Z,66.70
2022-08-08T17:14:19.494Z,66.60
2022-08-08T17:16:57.204Z,67.30
2022-08-08T17:19:29.830Z,67.50
2022-08-08T17:22:01.477Z,65.70
2022-08-08T17:24:30.897Z,67.80
2022-08-08T17:26:59.848Z,66.10
2022-08-08T17:29:33.835Z,68.40
2022-08-08T17:32:02.592Z,66.80
2022-08-08T17:34:36.051Z,66.70
2022-08-08T17:37:14.899Z,65.80
2022-08-08T17:40:04.826Z,66.90
2022-08-08T17:42:29.387Z,66.90
2022-08-08T17:44:58.297Z,67.50
2022-08-08T17:47:28.004Z,67.20
2022-08-08T17:50:01.309Z,67.00
2022-08-08T17:52:34.405Z,67.80
2022-08-08T17:55:05.627Z,67.00
2022-08-08T17:57:50.988Z,68.20
2022-08-08T18:00:25.824Z,68.50
2022-08-08T18:03:09.009Z,70.10
2022-08-08T18:05:48.147Z,69.80
2022-08-08T18:08:25.144Z,69.80
2022-08-08T18:11:14.892Z,69.80
2022-08-08T18:13:47.161Z,70.60
2022-08-08T18:16:17.092Z,71.30
2022-08-08T18:18:54.062Z,71.40
2022-08-08T18:21:59.390Z,71.20
2022-08-08T18:24:21.598Z,71.20
2022-08-08T18:26:54.787Z,71.90
2022-08-08T18:29:30.210Z,72.80
2022-08-08T18:32:07.316Z,72.80
2022-08-08T18:34:36.933Z,72.50
2022-08-08T18:37:08.516Z,73.60
2022-08-08T18:39:38.763Z,73.80
2022-08-08T18:42:15.685Z,75.00
2022-08-08T18:44:55.047Z,73.90
2022-08-08T18:47:25.447Z,74.40
2022-08-08T18:49:58.544Z,74.80
2022-08-08T18:52:27.551Z,74.60
2022-08-08T18:54:59.313Z,74.60
2022-08-08T18:57:41.213Z,74.30
2022-08-08T19:00:20.131Z,74.90
2022-08-08T19:02:56.803Z,75.00
2022-08-08T19:05:38.563Z,75.30
2022-08-08T19:08:25.063Z,75.20
2022-08-08T19:10:58.439Z,75.50
2022-08-08T19:13:53.414Z,76.80
2022-08-08T19:16:18.453Z,75.50
2022-08-08T19:18:53.321Z,75.50
2022-08-08T19:21:30.419Z,75.80
2022-08-08T19:23:58.970Z,76.20
2022-08-08T19:26:30.403Z,76.40
2022-08-08T19:28:59.575Z,76.70
2022-08-08T19:31:31.406Z,77.20
2022-08-08T19:34:36.340Z,76.50
2022-08-08T19:36:55.369Z,76.10
2022-08-08T19:39:25.682Z,77.30
2022-08-08T19:41:57.868Z,77.40
2022-08-08T19:44:43.019Z,77.60
2022-08-08T19:47:12.407Z,77.70
2022-08-08T19:49:39.622Z,78.70
2022-08-08T19:52:13.308Z,78.90
2022-08-08T19:54:43.063Z,79.40
2022-08-08T19:57:10.472Z,79.90
2022-08-08T19:59:42.004Z,80.20
2022-08-08T20:02:09.689Z,80.60
2022-08-08T20:04:38.465Z,80.70
2022-08-08T20:08:29.881Z,80.20
2022-08-08T20:09:58.787Z,80.30
2022-08-08T20:12:32.445Z,80.50
2022-08-08T20:15:16.586Z,80.70
2022-08-08T20:17:46.735Z,81.10
2022-08-08T20:20:19.728Z,81.40
2022-08-08T20:22:53.994Z,81.70
2022-08-08T20:25:22.173Z,81.80
2022-08-08T20:27:54.056Z,81.70
2022-08-08T20:30:52.780Z,82.00
2022-08-08T20:33:20.029Z,82.10
2022-08-08T20:35:58.707Z,81.90
2022-08-08T20:38:32.311Z,81.80
2022-08-08T20:41:12.229Z,81.60
2022-08-08T20:43:49.341Z,81.50
2022-08-08T20:46:25.567Z,81.50
2022-08-08T20:48:55.587Z,81.70
2022-08-08T20:51:27.212Z,81.60
2022-08-08T20:54:04.835Z,81.90
2022-08-08T20:57:04.001Z,82.00
2022-08-08T20:59:29.058Z,82.50
2022-08-08T21:02:06.887Z,82.50
2022-08-08T21:04:36.728Z,82.80
2022-08-08T21:07:08.368Z,83.00
2022-08-08T21:10:01.856Z,82.90
2022-08-08T21:12:38.195Z,82.80
2022-08-08T21:15:09.750Z,82.40
2022-08-08T21:17:37.712Z,82.50
2022-08-08T21:20:06.555Z,82.40
2022-08-08T21:22:33.827Z,82.70
2022-08-08T21:25:02.105Z,82.50
2022-08-08T21:27:39.036Z,83.00
2022-08-08T21:30:21.673Z,82.40
2022-08-08T21:32:51.184Z,82.70
2022-08-08T21:36:13.761Z,83.00
2022-08-08T21:38:08.510Z,82.80
2022-08-08T21:40:54.660Z,83.00
2022-08-08T21:43:22.398Z,83.80
2022-08-08T21:48:06.369Z,83.80
2022-08-08T21:48:41.822Z,84.50
2022-08-08T21:51:16.495Z,84.80
2022-08-08T21:54:31.632Z,84.60
2022-08-08T21:57:03.046Z,84.70
2022-08-08T22:00:02.865Z,84.70
2022-08-08T22:02:19.639Z,84.90
2022-08-08T22:04:56.115Z,84.70
2022-08-08T22:07:39.748Z,85.00
2022-08-08T22:10:10.124Z,85.20
2022-08-08T22:13:17.510Z,85.30
2022-08-08T22:15:59.698Z,85.50
2022-08-08T22:18:35.366Z,85.50
2022-08-08T22:21:14.137Z,85.60
2022-08-08T22:23:50.939Z,85.90
2022-08-08T22:26:31.004Z,86.20
2022-08-08T22:29:14.410Z,86.60
2022-08-08T22:32:01.875Z,86.80
2022-08-08T22:34:39.537Z,86.40
2022-08-08T22:37:14.879Z,86.40
2022-08-08T22:40:00.877Z,86.90
2022-08-08T22:42:31.954Z,87.10
2022-08-08T22:45:05.377Z,87.50
2022-08-08T22:47:41.248Z,87.50
2022-08-08T22:50:25.767Z,87.60
2022-08-08T22:54:27.645Z,87.90
2022-08-08T22:55:59.008Z,88.00
2022-08-08T22:58:34.192Z,88.10
2022-08-08T23:01:26.873Z,88.10
2022-08-08T23:03:56.614Z,88.60
2022-08-08T23:06:27.310Z,88.50
2022-08-08T23:08:58.944Z,88.20
2022-08-08T23:11:30.745Z,87.90
2022-08-08T23:14:19.328Z,87.80
2022-08-08T23:16:57.910Z,88.20
2022-08-08T23:19:32.240Z,88.00
2022-08-08T23:22:05.325Z,88.30
2022-08-08T23:24:36.126Z,88.80
2022-08-08T23:27:06.137Z,88.50
2022-08-08T23:29:33.591Z,88.80
2022-08-08T23:32:04.514Z,88.90
2022-08-08T23:34:33.233Z,89.20
2022-08-08T23:37:02.598Z,89.30
2022-08-08T23:39:42.130Z,89.80
2022-08-08T23:42:16.667Z,89.50
2022-08-08T23:44:43.623Z,89.80
2022-08-08T23:49:07.120Z,89.70
2022-08-08T23:50:03.169Z,90.10
2022-08-08T23:52:33.672Z,90.10
2022-08-08T23:55:14.007Z,90.30
2022-08-08T23:57:52.851Z,90.20
